Time;durP1;ratioP1;P1;durP2;ratioP2;P2;SDS_P1;SDS_P2;PMS_P1;PMS_P2;Temp;Humidity;BMP_temperature;BMP_pressure;BME280_temperature;BME280_humidity;BME280_pressure;Samples;Min_cycle;Max_cycle;Signal;HPM_P1;HPM_P2
2022/07/04 00:02:25;;;;;;;2.53;1.35;;;15.00;99.90;;;;;;5071672;28;20056;-63
2022/07/04 00:04:50;;;;;;;2.10;1.50;;;15.00;99.90;;;;;;5071913;28;20033;-60
2022/07/04 00:07:16;;;;;;;2.03;1.30;;;15.00;99.90;;;;;;5068742;28;20039;-60
2022/07/04 00:09:42;;;;;;;1.60;1.20;;;14.90;99.90;;;;;;5052266;28;20083;-62
2022/07/04 00:12:08;;;;;;;5.78;1.40;;;14.90;99.90;;;;;;5052096;28;20504;-61
2022/07/04 00:14:34;;;;;;;2.83;1.30;;;14.80;99.90;;;;;;5051529;28;20049;-61
2022/07/04 00:16:59;;;;;;;4.05;1.50;;;14.80;99.90;;;;;;5051791;28;20102;-60
2022/07/04 00:19:25;;;;;;;2.03;1.45;;;14.60;99.90;;;;;;5051609;28;20099;-62
2022/07/04 00:21:50;;;;;;;4.40;1.27;;;14.70;99.90;;;;;;5056359;28;20108;-62
2022/07/04 00:24:16;;;;;;;4.00;1.73;;;14.60;99.90;;;;;;5071086;28;20123;-61
2022/07/04 00:26:41;;;;;;;3.95;1.58;;;14.60;99.90;;;;;;5071389;28;20024;-61
2022/07/04 00:29:07;;;;;;;4.38;1.30;;;14.60;99.90;;;;;;5071482;28;20032;-61
2022/07/04 00:31:33;;;;;;;6.80;1.90;;;14.60;99.90;;;;;;5071372;28;20402;-62
2022/07/04 00:33:59;;;;;;;3.95;1.50;;;14.70;99.90;;;;;;5071095;28;20017;-62
2022/07/04 00:36:24;;;;;;;3.05;1.40;;;14.50;99.90;;;;;;5067131;28;20024;-62
2022/07/04 00:38:50;;;;;;;2.75;1.55;;;14.50;99.90;;;;;;5051225;28;20036;-61
2022/07/04 00:41:15;;;;;;;5.57;1.60;;;14.50;99.90;;;;;;5050983;28;20040;-62
2022/07/04 00:43:41;;;;;;;4.78;1.77;;;14.40;99.90;;;;;;5050604;28;20395;-61
2022/07/04 00:46:07;;;;;;;2.13;1.30;;;14.50;99.90;;;;;;5051210;28;20064;-61
2022/07/04 00:48:32;;;;;;;6.25;1.70;;;14.40;99.90;;;;;;5051351;28;20120;-61
2022/07/04 00:50:59;;;;;;;2.90;1.45;;;14.40;99.90;;;;;;5059972;28;20115;-62
2022/07/04 00:53:25;;;;;;;5.47;1.60;;;14.30;99.90;;;;;;5070685;28;20099;-61
2022/07/04 00:55:51;;;;;;;8.02;1.88;;;14.30;99.90;;;;;;5068838;28;20614;-62
2022/07/04 00:58:21;;;;;;;9.98;1.90;;;14.20;99.90;;;;;;5070386;28;20031;-59
2022/07/04 01:00:47;;;;;;;2.95;1.55;;;14.20;99.90;;;;;;5071030;28;20043;-62
2022/07/04 01:03:12;;;;;;;2.28;1.60;;;14.10;99.90;;;;;;5069422;28;20103;-61
2022/07/04 01:05:39;;;;;;;4.15;1.60;;;14.00;99.90;;;;;;5070818;28;20546;-61
2022/07/04 01:08:06;;;;;;;9.38;1.92;;;13.90;99.90;;;;;;5067437;28;20071;-62
2022/07/04 01:10:32;;;;;;;4.00;1.90;;;13.90;99.90;;;;;;5050863;28;20024;-61
2022/07/04 01:12:57;;;;;;;2.15;1.77;;;13.90;99.90;;;;;;5050438;28;20025;-61
2022/07/04 01:15:23;;;;;;;4.13;1.55;;;13.80;99.90;;;;;;5050138;28;20021;-60
2022/07/04 01:17:49;;;;;;;4.78;1.98;;;13.80;99.90;;;;;;5050489;28;20028;-62
2022/07/04 01:20:15;;;;;;;9.07;2.05;;;13.80;99.90;;;;;;5050814;28;20483;-61
2022/07/04 01:22:41;;;;;;;4.63;2.10;;;13.70;99.90;;;;;;5051406;28;20021;-62
2022/07/04 01:25:08;;;;;;;4.70;2.03;;;13.70;99.90;;;;;;5071138;28;20103;-61
2022/07/04 01:27:34;;;;;;;5.55;1.73;;;13.60;99.90;;;;;;5070656;28;20028;-61
2022/07/04 01:30:00;;;;;;;3.85;1.83;;;13.50;99.90;;;;;;5070203;28;20031;-62
2022/07/04 01:32:26;;;;;;;6.32;2.00;;;13.50;99.90;;;;;;5070435;28;20052;-62
2022/07/04 01:34:51;;;;;;;2.72;2.00;;;13.50;99.90;;;;;;5070948;28;20104;-61
2022/07/04 01:37:17;;;;;;;3.42;2.08;;;13.40;99.90;;;;;;5063014;28;20029;-61
2022/07/04 01:39:43;;;;;;;3.33;2.00;;;13.40;99.90;;;;;;5069114;28;20054;-60
2022/07/04 01:42:08;;;;;;;3.90;2.30;;;13.30;99.90;;;;;;5069812;28;20035;-61
2022/07/04 01:44:34;;;;;;;4.50;2.40;;;13.30;99.90;;;;;;5070572;28;20509;-61
2022/07/04 01:47:00;;;;;;;6.10;2.35;;;13.30;99.90;;;;;;5070517;28;20021;-61
2022/07/04 01:49:27;;;;;;;2.72;1.60;;;13.20;99.90;;;;;;5069640;28;20393;-61
2022/07/04 01:51:53;;;;;;;2.40;2.05;;;13.20;99.90;;;;;;5070005;28;20119;-61
2022/07/04 01:54:19;;;;;;;4.97;2.22;;;13.20;99.90;;;;;;5052567;28;20128;-61
2022/07/04 01:56:45;;;;;;;5.15;2.17;;;13.20;99.90;;;;;;5050343;28;20021;-61
2022/07/04 01:59:11;;;;;;;7.25;2.28;;;13.10;99.90;;;;;;5049101;28;20033;-61
2022/07/04 02:01:38;;;;;;;5.88;2.70;;;13.10;99.90;;;;;;5056753;28;20474;-61
2022/07/04 02:04:05;;;;;;;3.90;2.33;;;13.00;99.90;;;;;;5070262;28;20029;-61
2022/07/04 02:06:32;;;;;;;3.65;2.33;;;12.90;99.90;;;;;;5066583;28;20364;-61
2022/07/04 02:09:16;;;;;;;4.80;2.58;;;12.90;99.90;;;;;;5049960;28;20029;-61
2022/07/04 02:14:27;;;;;;;3.28;2.17;;;13.00;99.90;;;;;;5049796;28;20040;-60
2022/07/04 02:16:53;;;;;;;4.13;1.75;;;13.00;99.90;;;;;;5049806;28;20025;-61
2022/07/04 02:19:19;;;;;;;8.80;2.33;;;12.90;99.90;;;;;;5049989;28;20560;-61
2022/07/04 02:21:44;;;;;;;6.00;2.53;;;12.90;99.90;;;;;;5056842;28;20033;-61
2022/07/04 02:24:10;;;;;;;4.38;2.65;;;12.90;99.90;;;;;;5070345;28;20090;-61
2022/07/04 02:26:35;;;;;;;8.10;2.58;;;12.80;99.90;;;;;;5069679;28;20025;-61
2022/07/04 02:29:01;;;;;;;3.63;2.20;;;12.80;99.90;;;;;;5069879;28;20085;-61
2022/07/04 02:31:27;;;;;;;5.65;2.53;;;12.80;99.90;;;;;;5069996;28;20021;-61
2022/07/04 02:33:52;;;;;;;8.05;2.55;;;12.70;99.90;;;;;;5069778;28;20540;-61
2022/07/04 02:36:18;;;;;;;9.93;3.03;;;12.70;99.90;;;;;;5055984;28;20028;-61
2022/07/04 02:38:43;;;;;;;5.65;2.40;;;12.70;99.90;;;;;;5049898;28;20025;-62
2022/07/04 02:41:09;;;;;;;8.45;2.40;;;12.70;99.90;;;;;;5049906;28;20657;-61
2022/07/04 02:43:34;;;;;;;5.32;2.53;;;12.60;99.90;;;;;;5049554;28;20025;-61
2022/07/04 02:46:00;;;;;;;6.40;2.95;;;12.70;99.90;;;;;;5049828;28;20052;-61
2022/07/04 02:48:25;;;;;;;9.50;2.63;;;12.70;99.90;;;;;;5049299;28;20052;-61
2022/07/04 02:50:51;;;;;;;8.50;2.72;;;12.70;99.90;;;;;;5060960;28;20032;-61
2022/07/04 02:53:17;;;;;;;2.58;1.95;;;12.70;99.90;;;;;;5069470;28;20428;-62
2022/07/04 02:55:42;;;;;;;8.07;2.50;;;12.70;99.90;;;;;;5068007;28;20617;-61
2022/07/04 02:58:08;;;;;;;3.83;2.47;;;12.70;99.90;;;;;;5069171;28;20500;-60
2022/07/04 03:00:33;;;;;;;8.90;2.50;;;12.70;99.90;;;;;;5070040;28;20383;-62
2022/07/04 03:02:59;;;;;;;4.15;2.10;;;12.70;99.90;;;;;;5068795;28;20118;-61
2022/07/04 03:05:24;;;;;;;6.03;2.50;;;12.70;99.90;;;;;;5070280;28;20398;-62
2022/07/04 03:07:50;;;;;;;5.97;1.95;;;12.60;99.90;;;;;;5068940;28;20036;-61
2022/07/04 03:10:15;;;;;;;3.58;2.13;;;12.60;99.90;;;;;;5049245;28;20021;-61
2022/07/04 03:12:41;;;;;;;2.95;2.00;;;12.60;99.90;;;;;;5049090;28;20021;-62
2022/07/04 03:15:07;;;;;;;8.55;2.47;;;12.60;99.90;;;;;;5049481;28;20025;-61
2022/07/04 03:17:32;;;;;;;6.20;2.47;;;12.50;99.90;;;;;;5048865;28;20017;-61
2022/07/04 03:19:58;;;;;;;2.35;1.77;;;12.50;99.90;;;;;;5049369;28;20029;-61
2022/07/04 03:22:23;;;;;;;4.45;2.65;;;12.50;99.90;;;;;;5049363;28;20398;-61
2022/07/04 03:24:49;;;;;;;10.05;2.92;;;12.50;99.90;;;;;;5050075;28;20029;-62
2022/07/04 03:27:15;;;;;;;5.68;2.22;;;12.60;99.90;;;;;;5051561;28;20048;-61
2022/07/04 03:29:41;;;;;;;3.58;2.03;;;12.60;99.90;;;;;;5052976;28;20033;-61
2022/07/04 03:32:07;;;;;;;4.95;2.70;;;12.60;99.90;;;;;;5052645;28;20033;-59
2022/07/04 03:34:32;;;;;;;7.07;2.08;;;12.70;99.90;;;;;;5052867;28;20416;-60
2022/07/04 03:36:58;;;;;;;4.45;2.40;;;12.70;99.90;;;;;;5057091;28;20485;-62
2022/07/04 03:39:24;;;;;;;8.27;2.15;;;12.70;99.90;;;;;;5072733;28;20503;-61
2022/07/04 03:41:49;;;;;;;5.85;2.50;;;12.80;99.90;;;;;;5071621;28;20039;-61
2022/07/04 03:44:15;;;;;;;4.50;2.45;;;12.80;99.90;;;;;;5072437;28;20376;-61
2022/07/04 03:46:41;;;;;;;6.55;2.28;;;12.70;99.90;;;;;;5072533;28;20413;-61
2022/07/04 03:49:06;;;;;;;11.48;2.25;;;12.70;99.90;;;;;;5072458;28;20058;-62
2022/07/04 03:51:32;;;;;;;9.73;2.58;;;12.80;99.90;;;;;;5059211;28;20037;-61
2022/07/04 03:53:58;;;;;;;3.45;2.58;;;12.80;99.90;;;;;;5052535;28;20387;-61
2022/07/04 03:56:23;;;;;;;4.70;2.78;;;12.90;99.90;;;;;;5064388;28;20025;-62
2022/07/04 03:58:49;;;;;;;5.07;2.50;;;12.90;99.90;;;;;;5052482;28;20537;-61
2022/07/04 04:01:20;;;;;;;5.55;2.22;;;13.00;99.90;;;;;;5052232;28;20126;-61
2022/07/04 04:06:31;;;;;;;8.65;2.75;;;13.00;99.90;;;;;;5052698;28;20036;-61
2022/07/04 04:08:56;;;;;;;3.78;2.28;;;13.00;99.90;;;;;;5052253;28;20060;-62
2022/07/04 04:11:22;;;;;;;4.40;2.42;;;13.00;99.90;;;;;;5051932;28;20025;-61
2022/07/04 04:13:48;;;;;;;4.43;2.55;;;13.00;99.90;;;;;;5051969;28;20021;-60
2022/07/04 04:16:14;;;;;;;5.15;2.30;;;13.10;99.90;;;;;;5052058;28;20025;-62
2022/07/04 04:18:39;;;;;;;3.00;2.38;;;13.10;99.90;;;;;;5052290;28;20060;-62
2022/07/04 04:21:05;;;;;;;11.98;2.60;;;13.20;99.90;;;;;;5051540;28;20388;-61
2022/07/04 04:23:31;;;;;;;5.68;2.47;;;13.30;99.90;;;;;;5051828;28;20474;-62
2022/07/04 04:25:57;;;;;;;12.30;2.40;;;13.30;99.90;;;;;;5052060;28;20039;-62
2022/07/04 04:28:23;;;;;;;6.65;2.40;;;13.40;99.90;;;;;;5051432;28;20727;-61
2022/07/04 04:30:51;;;;;;;5.35;2.25;;;13.40;99.90;;;;;;5059594;28;20043;-61
2022/07/04 04:33:17;;;;;;;5.82;2.53;;;13.40;99.90;;;;;;5071580;28;20020;-61
2022/07/04 04:35:42;;;;;;;5.65;2.20;;;13.50;99.90;;;;;;5071803;28;20023;-62
2022/07/04 04:38:09;;;;;;;11.60;2.88;;;13.50;99.90;;;;;;5063661;28;20037;-59
2022/07/04 04:40:34;;;;;;;5.63;2.55;;;13.50;99.90;;;;;;5051776;28;20107;-61
2022/07/04 04:43:00;;;;;;;4.85;2.40;;;13.50;99.90;;;;;;5067248;28;20036;-61
2022/07/04 04:45:25;;;;;;;4.88;2.83;;;13.60;99.90;;;;;;5071219;28;20047;-61
2022/07/04 04:47:53;;;;;;;5.40;2.63;;;13.70;99.90;;;;;;5053560;28;20031;-61
2022/07/04 04:50:19;;;;;;;3.92;2.67;;;13.80;99.90;;;;;;5071052;28;20031;-61
2022/07/04 04:52:44;;;;;;;5.72;2.80;;;13.80;99.90;;;;;;5071212;28;20046;-62
2022/07/04 04:55:10;;;;;;;6.03;3.00;;;13.90;99.90;;;;;;5069672;28;20511;-62
2022/07/04 04:57:36;;;;;;;9.40;3.40;;;13.90;99.90;;;;;;5071138;28;20026;-63
2022/07/04 05:00:04;;;;;;;10.70;3.65;;;14.00;99.90;;;;;;5071129;28;20414;-62
2022/07/04 05:02:30;;;;;;;6.93;3.42;;;14.10;99.90;;;;;;5070943;28;20051;-62
2022/07/04 05:04:55;;;;;;;5.65;3.28;;;14.20;99.90;;;;;;5071192;28;20558;-62
2022/07/04 05:07:21;;;;;;;9.35;3.65;;;14.30;99.90;;;;;;5071151;28;20036;-62
2022/07/04 05:09:47;;;;;;;9.32;2.97;;;14.40;99.90;;;;;;5054256;28;20057;-61
2022/07/04 05:12:12;;;;;;;16.15;3.63;;;14.40;99.90;;;;;;5049881;28;20033;-62
2022/07/04 05:14:38;;;;;;;4.25;2.75;;;14.50;99.90;;;;;;5051159;28;20025;-62
2022/07/04 05:17:04;;;;;;;10.15;3.00;;;14.50;99.90;;;;;;5050878;28;20021;-62
2022/07/04 05:19:29;;;;;;;10.18;3.83;;;14.60;99.90;;;;;;5051253;28;20052;-62
2022/07/04 05:21:55;;;;;;;6.55;2.95;;;14.70;99.90;;;;;;5050420;28;20415;-62
2022/07/04 05:24:20;;;;;;;8.18;3.13;;;14.80;99.90;;;;;;5051916;28;20090;-62
2022/07/04 05:26:46;;;;;;;6.97;3.00;;;14.80;99.90;;;;;;5050373;28;20529;-62
2022/07/04 05:29:12;;;;;;;3.63;2.88;;;14.80;99.90;;;;;;5064039;28;20029;-61
2022/07/04 05:31:37;;;;;;;8.50;2.88;;;14.80;99.90;;;;;;5070387;28;20025;-61
2022/07/04 05:34:03;;;;;;;5.72;3.10;;;14.90;99.90;;;;;;5070701;28;20094;-61
2022/07/04 05:36:28;;;;;;;9.27;3.38;;;15.00;99.90;;;;;;5070056;28;20483;-61
2022/07/04 05:38:54;;;;;;;7.47;2.90;;;15.00;99.90;;;;;;5054734;28;20024;-62
2022/07/04 05:41:19;;;;;;;6.85;2.97;;;15.00;99.90;;;;;;5067707;28;20048;-59
2022/07/04 05:43:45;;;;;;;10.55;3.10;;;15.10;99.90;;;;;;5070443;28;20033;-62
2022/07/04 05:46:10;;;;;;;9.20;2.75;;;15.10;99.90;;;;;;5070538;28;20444;-61
2022/07/04 05:48:36;;;;;;;4.45;2.60;;;15.20;99.90;;;;;;5070208;28;20501;-62
2022/07/04 05:51:05;;;;;;;10.15;2.70;;;15.30;99.90;;;;;;5069363;28;20085;-62
2022/07/04 05:53:31;;;;;;;6.93;1.98;;;15.40;99.90;;;;;;5070239;28;20024;-61
2022/07/04 05:55:57;;;;;;;10.73;2.53;;;15.50;99.90;;;;;;5055270;28;20033;-60
2022/07/04 05:58:23;;;;;;;9.85;2.88;;;15.60;99.90;;;;;;5050542;28;20051;-60
2022/07/04 06:00:48;;;;;;;6.85;2.30;;;15.80;99.90;;;;;;5049217;28;20023;-59
2022/07/04 06:03:14;;;;;;;6.63;3.05;;;15.80;99.90;;;;;;5049455;28;20074;-62
2022/07/04 06:05:39;;;;;;;8.50;2.80;;;15.80;99.90;;;;;;5049903;28;20378;-61
2022/07/04 06:08:05;;;;;;;14.82;2.47;;;15.90;99.90;;;;;;5050239;28;20547;-62
2022/07/04 06:10:31;;;;;;;10.18;2.72;;;16.00;99.90;;;;;;5052025;28;20025;-62
2022/07/04 06:12:56;;;;;;;10.35;2.65;;;16.10;99.90;;;;;;5069491;28;20084;-62
2022/07/04 06:15:22;;;;;;;8.63;2.53;;;16.10;99.90;;;;;;5070715;28;20016;-62
2022/07/04 06:17:47;;;;;;;4.35;2.08;;;16.20;99.90;;;;;;5070142;28;20024;-62
2022/07/04 06:20:13;;;;;;;8.27;2.28;;;16.30;99.90;;;;;;5070036;28;20013;-62
2022/07/04 06:22:51;;;;;;;9.00;1.98;;;16.40;99.90;;;;;;5069486;28;20489;-62
2022/07/04 06:25:18;;;;;;;6.60;1.80;;;16.40;99.90;;;;;;5050076;28;20078;-62
2022/07/04 06:27:46;;;;;;;5.90;2.08;;;16.40;99.90;;;;;;5049590;28;20109;-62
2022/07/04 06:30:12;;;;;;;5.60;2.08;;;16.50;99.90;;;;;;5049932;28;20029;-61
2022/07/04 06:32:49;;;;;;;4.07;1.98;;;16.50;99.90;;;;;;5049709;28;20070;-61
2022/07/04 06:38:07;;;;;;;3.63;1.50;;;16.70;99.90;;;;;;5050508;28;20094;-61
2022/07/04 06:40:34;;;;;;;2.13;1.55;;;16.70;99.90;;;;;;5049721;28;20027;-62
2022/07/04 06:43:00;;;;;;;7.70;1.63;;;16.70;99.90;;;;;;5049861;28;20021;-62
2022/07/04 06:45:26;;;;;;;6.72;1.48;;;16.70;99.90;;;;;;5049938;28;20070;-60
2022/07/04 06:47:51;;;;;;;3.05;1.50;;;16.80;99.90;;;;;;5049836;28;20021;-62
2022/07/04 06:50:17;;;;;;;7.07;1.52;;;16.90;99.90;;;;;;5049612;28;20065;-62
2022/07/04 06:52:43;;;;;;;6.00;1.10;;;16.90;99.90;;;;;;5053477;28;20021;-62
2022/07/04 06:55:09;;;;;;;2.85;1.33;;;17.10;99.90;;;;;;5062268;28;20043;-61
2022/07/04 06:57:35;;;;;;;5.30;1.45;;;17.10;99.90;;;;;;5069721;28;20017;-61
2022/07/04 07:00:02;;;;;;;5.78;1.77;;;17.20;99.90;;;;;;5070332;28;20035;-62
2022/07/04 07:02:28;;;;;;;7.60;1.80;;;17.20;99.90;;;;;;5072123;28;20095;-62
2022/07/04 07:04:56;;;;;;;3.58;1.20;;;17.20;99.90;;;;;;5073788;28;20518;-61
2022/07/04 07:07:22;;;;;;;2.88;1.50;;;17.30;99.90;;;;;;5073527;28;20383;-62
2022/07/04 07:09:47;;;;;;;4.38;1.50;;;17.30;99.90;;;;;;5056424;28;20021;-62
2022/07/04 07:12:13;;;;;;;5.07;1.50;;;17.40;99.90;;;;;;5052700;28;20024;-62
2022/07/04 07:14:38;;;;;;;3.22;1.30;;;17.40;99.90;;;;;;5053487;28;20379;-61
2022/07/04 07:17:04;;;;;;;7.07;1.63;;;17.50;99.90;;;;;;5053462;28;20075;-61
2022/07/04 07:19:29;;;;;;;7.68;2.08;;;17.50;99.90;;;;;;5052922;28;20025;-62
2022/07/04 07:21:55;;;;;;;5.43;1.70;;;17.70;99.90;;;;;;5053373;28;20053;-61
2022/07/04 07:24:21;;;;;;;3.70;1.38;;;17.70;99.90;;;;;;5067275;28;20059;-62
2022/07/04 07:26:46;;;;;;;7.82;1.60;;;17.70;99.90;;;;;;5073108;28;20113;-61
2022/07/04 07:29:12;;;;;;;4.07;1.00;;;17.80;99.90;;;;;;5072913;28;20059;-61
2022/07/04 07:31:37;;;;;;;3.60;1.10;;;17.80;99.90;;;;;;5072340;28;20100;-61
2022/07/04 07:34:03;;;;;;;1.80;0.93;;;17.90;99.90;;;;;;5072784;28;20108;-60
2022/07/04 07:36:28;;;;;;;4.50;0.70;;;18.00;99.90;;;;;;5072585;28;20379;-58
2022/07/04 07:38:55;;;;;;;1.65;0.98;;;18.00;99.90;;;;;;5065579;28;20028;-62
2022/07/04 07:41:21;;;;;;;1.98;0.85;;;18.00;99.90;;;;;;5052561;28;20521;-61
2022/07/04 07:43:47;;;;;;;4.00;0.60;;;18.20;99.90;;;;;;5052483;28;20029;-62
2022/07/04 07:46:12;;;;;;;1.60;0.50;;;18.30;99.90;;;;;;5052844;28;20527;-61
2022/07/04 07:48:38;;;;;;;1.60;0.57;;;18.40;99.90;;;;;;5052366;28;20474;-61
2022/07/04 07:51:04;;;;;;;1.73;0.52;;;18.40;99.90;;;;;;5052480;28;20475;-61
2022/07/04 07:53:29;;;;;;;1.70;0.52;;;18.50;99.90;;;;;;5053458;28;20031;-61
2022/07/04 07:55:55;;;;;;;0.70;0.40;;;18.60;99.90;;;;;;5052156;28;20021;-62
2022/07/04 07:58:20;;;;;;;2.05;0.50;;;18.60;99.90;;;;;;5064830;28;20024;-61
2022/07/04 08:00:47;;;;;;;0.40;0.40;;;18.60;99.90;;;;;;5072608;28;20099;-62
2022/07/04 08:05:57;;;;;;;1.90;0.50;;;18.70;99.90;;;;;;5072716;28;20085;-61
2022/07/04 08:08:23;;;;;;;1.08;0.50;;;18.80;99.90;;;;;;5060623;28;20429;-61
2022/07/04 08:10:49;;;;;;;0.55;0.55;;;18.80;99.90;;;;;;5052239;28;20013;-61
2022/07/04 08:13:15;;;;;;;7.13;0.70;;;18.90;99.90;;;;;;5052181;28;20467;-61
2022/07/04 08:15:41;;;;;;;0.98;0.50;;;18.80;99.90;;;;;;5052502;28;20024;-62
2022/07/04 08:18:06;;;;;;;0.43;0.43;;;18.80;99.90;;;;;;5052438;28;20493;-62
2022/07/04 08:20:32;;;;;;;1.88;0.50;;;18.90;99.90;;;;;;5052095;28;20028;-61
2022/07/04 08:22:57;;;;;;;1.75;0.52;;;19.10;99.90;;;;;;5059968;28;20359;-62
2022/07/04 08:25:23;;;;;;;0.60;0.40;;;19.10;99.90;;;;;;5052327;28;20025;-62
2022/07/04 08:27:49;;;;;;;0.80;0.40;;;19.20;99.90;;;;;;5052112;28;20059;-62
2022/07/04 08:30:14;;;;;;;2.13;0.45;;;19.30;99.90;;;;;;5051983;28;20025;-62
2022/07/04 08:32:40;;;;;;;0.30;0.30;;;19.30;99.90;;;;;;5051804;28;20017;-60
2022/07/04 08:35:06;;;;;;;1.55;0.57;;;19.40;99.90;;;;;;5052339;28;20014;-61
2022/07/04 08:37:32;;;;;;;1.73;0.40;;;19.50;99.90;;;;;;5055809;28;20471;-62
2022/07/04 08:39:57;;;;;;;0.73;0.60;;;19.60;99.90;;;;;;5065256;28;20025;-61
2022/07/04 08:42:23;;;;;;;8.57;0.68;;;19.70;99.90;;;;;;5051922;28;20417;-61
2022/07/04 08:44:50;;;;;;;2.42;0.50;;;19.70;99.90;;;;;;5071542;28;20497;-61
2022/07/04 08:47:22;;;;;;;0.40;0.40;;;19.80;99.90;;;;;;5071711;28;20470;-62
2022/07/04 08:50:06;;;;;;;0.98;0.55;;;19.90;99.90;;;;;;5071265;28;20054;-62
2022/07/04 08:52:39;;;;;;;2.65;0.65;;;19.90;99.90;;;;;;5067551;28;20056;-62
2022/07/04 09:00:37;;;;;;;0.85;0.50;;;20.00;99.90;;;;;;5058532;28;20422;-62
2022/07/04 09:03:03;;;;;;;3.75;0.60;;;20.00;99.90;;;;;;5051155;28;20100;-62
2022/07/04 09:05:31;;;;;;;2.05;0.90;;;19.90;99.90;;;;;;5051450;28;20366;-62
2022/07/04 09:07:58;;;;;;;5.15;0.90;;;20.10;99.90;;;;;;5052466;28;20044;-61
2022/07/04 09:10:24;;;;;;;2.10;0.80;;;20.10;99.90;;;;;;5060826;28;20032;-62
2022/07/04 09:12:50;;;;;;;0.93;0.60;;;20.20;99.90;;;;;;5050732;28;20021;-61
2022/07/04 09:15:17;;;;;;;3.60;0.77;;;20.30;99.90;;;;;;5051126;28;20478;-62
2022/07/04 09:17:43;;;;;;;2.75;0.77;;;20.30;99.90;;;;;;5051153;28;20025;-61
2022/07/04 09:20:20;;;;;;;3.42;0.70;;;20.40;99.90;;;;;;5059777;28;20025;-62
2022/07/04 09:22:46;;;;;;;2.58;0.80;;;20.50;99.90;;;;;;5068815;28;20474;-62
2022/07/04 09:25:14;;;;;;;2.15;0.70;;;20.60;99.90;;;;;;5067441;28;20028;-61
2022/07/04 09:27:44;;;;;;;1.77;0.80;;;20.60;99.90;;;;;;5068645;28;20052;-60
2022/07/04 09:30:23;;;;;;;1.25;0.60;;;20.60;99.90;;;;;;5070746;28;20020;-62
2022/07/04 09:32:59;;;;;;;2.97;0.60;;;20.40;99.90;;;;;;5070579;28;20039;-61
2022/07/04 09:35:26;;;;;;;5.65;0.77;;;20.50;99.90;;;;;;5070206;28;20020;-60
2022/07/04 09:37:54;;;;;;;3.33;0.65;;;20.90;99.90;;;;;;5069357;28;20493;-62
2022/07/04 09:40:30;;;;;;;0.65;0.40;;;21.10;99.90;;;;;;5068842;28;20047;-62
2022/07/04 09:42:59;;;;;;;1.95;0.57;;;21.20;99.90;;;;;;5070312;28;20074;-61
2022/07/04 09:45:25;;;;;;;2.25;0.50;;;21.20;99.90;;;;;;5070047;28;20463;-62
2022/07/04 09:47:55;;;;;;;5.03;0.82;;;21.20;99.90;;;;;;5070535;28;20029;-62
2022/07/04 09:50:22;;;;;;;1.80;0.68;;;21.40;99.90;;;;;;5070598;28;20024;-60
2022/07/04 09:52:53;;;;;;;0.88;0.50;;;21.40;99.90;;;;;;5069512;28;20016;-62
2022/07/04 09:55:33;;;;;;;3.80;0.50;;;21.60;99.90;;;;;;5051343;28;20028;-62
2022/07/04 09:58:00;;;;;;;5.88;0.60;;;21.70;99.90;;;;;;5051259;28;20071;-62
2022/07/04 10:00:26;;;;;;;3.92;0.60;;;21.50;99.90;;;;;;5051511;28;20025;-61
2022/07/04 10:02:54;;;;;;;3.70;0.70;;;21.60;99.90;;;;;;5051332;28;20035;-60
2022/07/04 10:05:24;;;;;;;1.15;0.55;;;21.60;99.90;;;;;;5051571;28;20012;-62
2022/07/04 10:07:50;;;;;;;1.38;0.40;;;21.60;99.90;;;;;;5051951;28;20112;-60
2022/07/04 10:10:39;;;;;;;3.20;0.70;;;21.70;99.90;;;;;;5066560;28;20104;-60
2022/07/04 10:13:11;;;;;;;2.47;0.70;;;21.90;99.90;;;;;;5070360;28;20012;-60
2022/07/04 10:15:40;;;;;;;2.58;0.40;;;22.30;99.90;;;;;;5070236;28;20195;-60
2022/07/04 10:18:08;;;;;;;0.40;0.40;;;22.20;99.90;;;;;;5069805;28;20016;-61
2022/07/04 10:20:34;;;;;;;2.13;0.40;;;22.00;99.90;;;;;;5070028;28;20016;-60
2022/07/04 10:23:01;;;;;;;2.17;0.70;;;22.30;99.90;;;;;;5069736;28;20013;-61
2022/07/04 10:25:26;;;;;;;1.77;0.60;;;22.30;99.90;;;;;;5057544;28;20100;-61
2022/07/04 10:27:52;;;;;;;2.33;0.43;;;22.40;99.90;;;;;;5049906;28;20101;-61
2022/07/04 10:30:30;;;;;;;1.02;0.70;;;22.70;99.90;;;;;;5050130;28;20048;-61
2022/07/04 10:32:59;;;;;;;3.60;0.43;;;22.90;99.90;;;;;;5049757;28;20009;-60
2022/07/04 10:35:49;;;;;;;5.40;0.80;;;23.20;99.90;;;;;;5049530;28;20013;-61
2022/07/04 10:38:16;;;;;;;2.38;0.70;;;23.00;99.90;;;;;;5053908;28;20074;-61
2022/07/04 10:40:56;;;;;;;2.22;0.60;;;23.10;99.90;;;;;;5070071;28;20036;-61
2022/07/04 10:43:31;;;;;;;4.80;0.80;;;23.30;99.90;;;;;;5073694;28;20021;-61
2022/07/04 10:46:14;;;;;;;2.10;0.70;;;23.70;99.90;;;;;;5073702;28;20479;-61
2022/07/04 10:48:49;;;;;;;1.90;0.68;;;23.70;99.90;;;;;;5073693;28;20108;-61
2022/07/04 10:51:15;;;;;;;2.90;0.90;;;24.20;99.90;;;;;;5073486;28;20077;-61
2022/07/04 10:54:02;;;;;;;5.82;0.73;;;24.20;99.90;;;;;;5064388;28;20021;-62
2022/07/04 10:56:27;;;;;;;3.53;0.57;;;24.40;99.90;;;;;;5053764;28;20546;-61
2022/07/04 10:58:55;;;;;;;3.92;0.60;;;24.40;99.90;;;;;;5053838;28;20117;-62
2022/07/04 11:01:20;;;;;;;1.15;0.60;;;24.60;99.90;;;;;;5035630;28;20051;-61
2022/07/04 11:03:47;;;;;;;1.10;0.63;;;24.30;99.90;;;;;;5053090;28;20021;-59
2022/07/04 11:06:43;;;;;;;4.78;0.57;;;23.90;99.90;;;;;;5053517;28;20099;-61
2022/07/04 11:09:25;;;;;;;2.28;0.60;;;24.10;99.90;;;;;;5053562;28;20063;-61
2022/07/04 11:12:00;;;;;;;0.65;0.50;;;24.60;99.90;;;;;;5053273;28;20135;-60
2022/07/04 11:14:45;;;;;;;4.35;0.80;;;24.70;99.90;;;;;;5053476;28;20052;-60
2022/07/04 11:17:39;;;;;;;0.98;0.50;;;24.40;99.90;;;;;;5052964;28;20025;-61
2022/07/04 11:20:07;;;;;;;2.75;0.60;;;24.10;99.90;;;;;;5053221;28;20604;-62
2022/07/04 11:22:34;;;;;;;2.22;0.60;;;24.40;99.90;;;;;;5053211;28;20100;-62
2022/07/04 11:25:00;;;;;;;2.35;0.70;;;24.50;99.90;;;;;;5073212;28;20028;-62
2022/07/04 11:27:26;;;;;;;5.18;0.63;;;24.40;99.90;;;;;;5072870;28;20036;-59
2022/07/04 11:29:55;;;;;;;0.55;0.43;;;23.90;99.90;;;;;;5073011;28;20417;-60
2022/07/04 11:32:29;;;;;;;3.38;0.70;;;23.60;99.90;;;;;;5072703;28;20012;-61
2022/07/04 11:34:55;;;;;;;7.78;1.08;;;23.40;99.90;;;;;;5073224;28;20392;-60
2022/07/04 11:37:20;;;;;;;3.05;0.63;;;23.90;99.90;;;;;;5070930;28;20028;-60
2022/07/04 11:45:22;;;;;;;1.10;0.63;;;24.50;99.90;;;;;;5072777;28;20023;-61
2022/07/04 11:47:49;;;;;;;2.83;0.75;;;25.00;99.90;;;;;;5072624;28;20028;-61
2022/07/04 11:50:18;;;;;;;1.63;0.93;;;25.00;99.90;;;;;;5072030;28;20020;-62
2022/07/04 11:52:46;;;;;;;2.25;0.90;;;24.90;99.90;;;;;;5072147;28;20013;-62
2022/07/04 11:55:14;;;;;;;0.95;0.60;;;25.00;99.90;;;;;;5071724;28;20077;-60
2022/07/04 11:57:45;;;;;;;2.80;0.77;;;25.20;99.90;;;;;;5072467;28;20017;-61
2022/07/04 12:00:12;;;;;;;1.15;0.57;;;25.60;99.90;;;;;;5072592;28;20044;-62
2022/07/04 12:02:38;;;;;;;1.92;0.50;;;25.80;99.40;;;;;;5072176;28;20439;-62
2022/07/04 12:05:06;;;;;;;1.45;0.63;;;25.60;97.10;;;;;;5071782;28;20047;-62
2022/07/04 12:07:35;;;;;;;2.25;0.65;;;25.60;97.20;;;;;;5072458;28;20024;-62
2022/07/04 12:10:12;;;;;;;8.60;0.57;;;25.60;97.30;;;;;;5072277;28;20032;-62
2022/07/04 12:13:03;;;;;;;1.10;0.63;;;25.80;97.60;;;;;;5071690;28;20579;-62
2022/07/04 12:15:49;;;;;;;1.75;0.50;;;25.90;95.90;;;;;;5071893;28;20474;-62
2022/07/04 12:18:20;;;;;;;0.75;0.65;;;25.30;96.30;;;;;;5060562;28;20722;-62
2022/07/04 12:20:47;;;;;;;3.63;0.73;;;25.40;96.50;;;;;;5052038;28;20463;-62
2022/07/04 12:23:12;;;;;;;2.67;0.52;;;25.80;97.50;;;;;;5051871;28;20024;-61
2022/07/04 12:25:39;;;;;;;4.32;0.60;;;26.00;96.80;;;;;;5052073;28;20031;-62
2022/07/04 12:28:08;;;;;;;0.70;0.45;;;26.10;98.10;;;;;;5052031;28;20360;-62
2022/07/04 12:30:35;;;;;;;0.82;0.50;;;26.10;97.30;;;;;;5051968;28;20028;-62
2022/07/04 12:33:07;;;;;;;0.85;0.52;;;25.80;98.50;;;;;;5062981;28;20378;-62
2022/07/04 12:35:36;;;;;;;5.97;0.70;;;26.20;96.60;;;;;;5071984;28;20103;-62
2022/07/04 12:38:09;;;;;;;1.90;0.40;;;26.00;97.40;;;;;;5071767;28;20044;-62
2022/07/04 12:40:37;;;;;;;0.50;0.50;;;25.70;96.30;;;;;;5071399;28;20016;-61
2022/07/04 12:43:03;;;;;;;6.50;0.70;;;25.60;96.30;;;;;;5071401;28;20013;-62
2022/07/04 12:45:50;;;;;;;1.00;0.60;;;25.80;97.10;;;;;;5071361;28;20467;-62
2022/07/04 12:48:17;;;;;;;5.47;0.60;;;26.00;96.40;;;;;;5051712;28;20051;-62
2022/07/04 12:50:43;;;;;;;1.75;0.70;;;26.40;95.00;;;;;;5051526;28;20435;-62
2022/07/04 12:53:09;;;;;;;0.82;0.50;;;26.00;95.40;;;;;;5051329;28;20021;-62
2022/07/04 12:55:38;;;;;;;1.88;0.45;;;26.20;95.20;;;;;;5065161;28;20475;-62
2022/07/04 12:58:04;;;;;;;1.58;0.50;;;26.60;94.80;;;;;;5071351;28;20016;-62
2022/07/04 13:00:29;;;;;;;1.08;0.40;;;26.80;93.90;;;;;;5070521;28;20059;-62
2022/07/04 13:02:55;;;;;;;2.78;0.57;;;26.90;92.60;;;;;;5070994;28;20641;-62
2022/07/04 13:05:21;;;;;;;1.20;0.45;;;27.10;93.00;;;;;;5071306;28;20070;-62
2022/07/04 13:07:46;;;;;;;3.42;0.65;;;27.30;93.80;;;;;;5070728;28;20539;-62
2022/07/04 13:10:12;;;;;;;3.03;0.63;;;27.10;94.80;;;;;;5050631;28;20135;-62